ADDS METAR Data INFO
IDs: Format: Raw Decoded Include TAF

Data at: 0755 UTC 23 Jul 2018

KHFD 230653Z AUTO 16009KT 10SM BKN009 OVC013 24/23 A3008 RMK AO2 SLP185 T02390228
KHFD 230638Z AUTO 16008KT 10SM OVC010 24/23 A3008 RMK AO2 CIG 008V014 T02390233
KHFD 230553Z AUTO 16008KT 10SM OVC009 24/23 A3008 RMK AO2 CIG 007V013 SLP187 60107 T02390233 10244 20228 50001
KHFD 230453Z AUTO 17007KT 10SM BKN014 OVC018 24/23 A3009 RMK AO2 RAE31 SLP188 P0005 T02390228 402830194
KHFD 230408Z AUTO 17006KT 5SM -RA BR BKN014 OVC020 23/23 A3009 RMK AO2 P0003 T02330228
KHFD 230401Z AUTO 20006KT 2 1/2SM -RA BR BKN014 OVC020 23/23 A3009 RMK AO2 P0002 T02330228
KHFD 230353Z 17007KT 1 3/4SM +RA BR FEW008 BKN015 OVC025 23/23 A3009 RMK AO2 LTG DSNT W SLP188 P0060 T02330228
KHFD 230334Z 15007KT 1 1/4SM +RA BR SCT009 BKN016 OVC021 23/23 A3009 RMK AO2 P0033 T02330228
KHFD 230326Z VRB06KT 2SM +RA BR FEW009 BKN014 OVC021 23/23 A3009 RMK AO2 P0018 T02330228
KHFD 230322Z 13004KT 3SM RA BR BKN014 BKN021 OVC025 23/22 A3008 RMK AO2 P0011 T02330222
KHFD 230257Z 16004KT 3SM -RA BR FEW010 OVC023 23/23 A3008 RMK AO2 P0000 T02330228
KHFD 230253Z 16004KT 1 3/4SM +RA BR FEW010 SCT018 OVC023 23/23 A3008 RMK AO2 VIS 1 1/4V3 RAB27 SLP186 P0021 60042 T02330228 50003
KHFD 230251Z 16004KT 2SM +RA BR FEW010 SCT018 OVC025 23/22 A3008 RMK AO2 VIS 1 1/4V2 1/2 RAB27 P0020
KHFD 230232Z 16007KT 4SM +RA BR SCT011 BKN016 OVC025 23/23 A3008 RMK AO2 RAB27 P0004 T02330228
KHFD 230153Z 16004KT 10SM OVC011 23/22 A3008 RMK AO2 RAE49 SLP186 P0013 T02330222
KHFD 230132Z 11004KT 3SM -RA BR BKN013 OVC018 23/22 A3008 RMK AO2 P0012 T02280222
KHFD 230123Z 12003KT 2 1/2SM +RA BR OVC015 23/22 A3008 RMK AO2 VIS 1 1/4V5 P0010 T02280222
KHFD 230053Z 00000KT 6SM -RA BR OVC011 23/22 A3007 RMK AO2 RAB25 SLP183 P0008 T02330222
KHFD 230043Z 00000KT 10SM -RA OVC013 23/22 A3007 RMK AO2 RAB25 P0007 T02280222
KHFD 230036Z 00000KT 2 1/2SM -RA BR OVC013 23/22 A3007 RMK AO2 RAB25 P0007 T02280222
KHFD 222353Z 00000KT 10SM OVC013 23/22 A3007 RMK AO2 RAE05 SLP180 P0001 60005 T02280217 10283 20228 51011
KHFD 222325Z 13003KT 10SM OVC014 23/22 A3006 RMK AO2 RAE05 P0001 T02280217
KHFD 222253Z VRB04KT 6SM -RA BR BKN020 OVC025 23/22 A3006 RMK AO2 RAB32 SLP179 P0004 T02280217
KHFD 222245Z 14006KT 3SM -RA BR OVC024 23/22 A3006 RMK AO2 RAB32 P0004 T02280217
KHFD 222237Z 15010G20KT 1 3/4SM +RA BR BKN024 OVC032 23/21 A3006 RMK AO2 RAB32 P0004 T02330211
KHFD 222217Z 13007KT 10SM BKN026 OVC033 26/21 A3005 RMK AO2 T02560206
KHFD 222153Z 15007KT 10SM FEW022 26/21 A3005 RMK AO2 SLP174 T02610206
KHFD 222100Z 15010KT 10SM SCT025 SCT032 27/22 A3004 RMK AO2 T02670217
KHFD 222053Z 15009KT 10SM BKN027 BKN030 BKN035 27/22 A3003 RMK AO2 SLP169 T02670217 53007
KHFD 221953Z 15007KT 10SM BKN027 OVC034 27/22 A3002 RMK AO2 SLP164 T02720222
KHFD 221853Z 16007G19KT 10SM FEW023 BKN030 BKN039 28/22 A3001 RMK AO2 SLP161 T02780222
KHFD 221753Z 15010G16KT 100V170 10SM SCT021 BKN026 BKN032 27/22 A3001 RMK AO2 SLP162 T02670222 10278 20217 53008
KHFD 221653Z 17012G19KT 10SM BKN019 OVC029 27/23 A3000 RMK AO2 SLP160 T02670228
KHFD 221643Z 18014G21KT 10SM BKN019 BKN029 27/23 A3000 RMK AO2 T02670228
KHFD 221619Z 15013G19KT 10SM SCT019 BKN033 27/23 A3000 RMK AO2 T02670228
KHFD 221553Z 17009G17KT 10SM BKN018 BKN024 OVC042 27/23 A2999 RMK AO2 SLP155 T02670228
KHFD 221453Z 16011G18KT 10SM BKN015 BKN020 OVC025 24/22 A2999 RMK AO2 SLP154 T02440217 53016
KHFD 221353Z 14007KT 10SM OVC012 23/22 A2997 RMK AO2 SLP148 T02330217
KHFD 221324Z 15010G16KT 10SM OVC013 23/21 A2996 RMK AO2 T02280211
KHFD 221253Z VRB06KT 10SM BKN021 OVC027 23/21 A2996 RMK AO2 SLP143 T02280211
KHFD 221229Z 14005KT 10SM FEW017 BKN027 OVC041 23/21 A2995 RMK AO2 T02280211
KHFD 221222Z 13005KT 10SM FEW017 BKN030 OVC042 23/21 A2995 RMK AO2 T02280211
KHFD 221153Z 00000KT 10SM FEW018 BKN022 OVC027 22/21 A2994 RMK AO2 RAE43 SLP139 P0012 60069 70069 T02170211 10217 20194 53001
KHFD 221118Z VRB05KT 3SM -RA BR SCT009 OVC015 21/20 A2993 RMK AO2 P0009 T02060200
KHFD 221109Z VRB04KT 3SM RA BR FEW006 OVC014 20/19 A2993 RMK AO2 P0007 T02000194
KHFD 221104Z 20005KT 2SM +RA BR SCT009 OVC016 20/19 A2993 RMK AO2 P0006 T02000194
KHFD 221053Z VRB06KT 1 1/2SM +RA BR FEW009 BKN018 OVC026 20/19 A2991 RMK AO2 SLP128 P0053 T02000194
KHFD 221048Z 05007KT 1 3/4SM +RA BR BKN018 OVC027 20/19 A2990 RMK AO2 P0048
KHFD 221040Z 07007KT 4SM RA BR FEW010 BKN027 OVC031 20/19 A2992 RMK AO2 P0032 T02000194
KHFD 221018Z 07007KT 2 1/2SM +RA BR SCT012 BKN026 OVC036 20/19 A2992 RMK AO2 P0018 T02000189
KHFD 221008Z 06007KT 3SM RA BR BKN012 BKN026 OVC034 20/19 A2992 RMK AO2 P0010 T02000189
KHFD 221005Z 06007KT 2 1/2SM +RA BR SCT013 BKN024 OVC040 20/19 A2992 RMK AO2 P0010 T02000189
KHFD 220956Z 06008KT 040V100 3SM +RA BR SCT013 BKN029 OVC041 20/19 A2993 RMK AO2 P0003 T02000189
KHFD 220953Z AUTO 07007KT 5SM RA BR BKN013 BKN026 OVC036 20/19 A2993 RMK AO2 RAE18B31 SLP135 P0004 T02000189
KHFD 220937Z AUTO 08007KT 10SM -RA BKN014 BKN025 OVC100 20/19 A2993 RMK AO2 RAE18B31 P0000 T02000189
KHFD 220930Z AUTO 08006KT 10SM SCT014 BKN025 OVC100 20/19 A2993 RMK AO2 RAE18 P0000 T02000189
KHFD 220853Z AUTO 07010G15KT 10SM -RA OVC010 20/18 A2994 RMK AO2 RAB08 CIG 008V013 SLP138 P0000 60000 T02000183 58020
KHFD 220753Z AUTO 08007KT 10SM OVC011 19/17 A2997 RMK AO2 RAE10 SLP147 P0000 T01940172
KHFD 220715Z AUTO 10006KT 10SM OVC014 19/17 A2998 RMK AO2 RAE10 P0000 T01940167
KHFD 220653Z AUTO 08007KT 10SM -RA OVC016 19/17 A2999 RMK AO2 RAB32 SLP153 P0000 T01940167
KHFD 220553Z AUTO VRB06KT 10SM OVC016 19/16 A3000 RMK AO2 SLP158 T01940161 10228 20194 56013
KHFD 220453Z AUTO 06007KT 10SM BKN024 BKN033 OVC042 21/15 A3000 RMK AO2 SLP159 T02060150 402670167
KHFD 220443Z AUTO 06008KT 040V100 10SM BKN024 BKN046 OVC055 21/15 A3000 RMK AO2 T02060150
KHFD 220353Z 06005G14KT 10SM FEW031 BKN048 OVC060 21/16 A3002 RMK AO2 SLP164 T02110156
KHFD 220253Z 08007KT 060V120 10SM SCT035 BKN042 OVC060 21/17 A3004 RMK AO2 SLP171 T02110167 58006
KHFD 220153Z VRB03KT 10SM SCT042 BKN050 OVC060 22/16 A3005 RMK AO2 SLP175 T02170161
KHFD 220053Z 13006KT 10SM SCT049 BKN060 22/16 A3005 RMK AO2 SLP176 T02220161
KHFD 212353Z 12006KT 10SM BKN055 23/15 A3006 RMK AO2 SLP177 T02280150 10267 20228 55001
KHFD 212253Z 12003KT 10SM CLR 24/15 A3006 RMK AO2 SLP177 T02390150
KHFD 212153Z 13006KT 10SM CLR 24/15 A3005 RMK AO2 SLP176 T02440150
KHFD 212053Z 14008KT 10SM CLR 25/14 A3006 RMK AO2 SLP178 T02500139 55010